Time;durP1;ratioP1;P1;durP2;ratioP2;P2;SDS_P1;SDS_P2;PMS_P1;PMS_P2;Temp;Humidity;BMP_temperature;BMP_pressure;BME280_temperature;BME280_humidity;BME280_pressure;Samples;Min_cycle;Max_cycle;Signal;HPM_P1;HPM_P2
2023/01/14 00:00:31;;;;;;;24.97;10.70;;;;;;;-1.43;91.64;101130.05;124689;1102;104182;-80
2023/01/14 00:03:22;;;;;;;29.53;11.60;;;;;;;-1.44;92.45;101131.73;124636;1101;101823;-80
2023/01/14 00:06:00;;;;;;;27.17;11.57;;;;;;;-1.42;92.29;101129.30;124712;1102;102086;-80
2023/01/14 00:08:32;;;;;;;21.13;7.50;;;;;;;-1.39;93.14;101130.48;124662;1102;104185;-83
2023/01/14 00:11:09;;;;;;;27.53;9.77;;;;;;;-1.43;92.59;101133.55;124775;1102;104185;-81
2023/01/14 00:13:41;;;;;;;22.90;9.30;;;;;;;-1.46;92.66;101136.73;124736;1102;102021;-81
2023/01/14 00:16:14;;;;;;;25.47;10.10;;;;;;;-1.48;91.83;101134.77;124600;1102;102144;-80
2023/01/14 00:18:46;;;;;;;25.17;9.23;;;;;;;-1.50;92.71;101139.77;124641;1102;104181;-79
2023/01/14 00:21:17;;;;;;;25.20;9.90;;;;;;;-1.48;92.13;101129.63;124675;1102;104267;-80
2023/01/14 00:23:48;;;;;;;24.30;9.97;;;;;;;-1.47;92.16;101131.45;124754;1102;102028;-80
2023/01/14 00:26:20;;;;;;;26.07;10.10;;;;;;;-1.45;92.83;101127.33;124760;1102;104368;-80
2023/01/14 00:28:52;;;;;;;26.43;9.57;;;;;;;-1.45;92.14;101133.41;124599;1103;101959;-81
2023/01/14 00:31:25;;;;;;;21.53;8.07;;;;;;;-1.44;92.17;101121.44;124785;1102;104211;-80
2023/01/14 00:33:59;;;;;;;27.27;10.20;;;;;;;-1.47;91.88;101123.72;124606;1102;104182;-79
2023/01/14 00:36:30;;;;;;;24.07;10.23;;;;;;;-1.49;92.68;101125.26;124667;1102;102017;-80
2023/01/14 00:39:02;;;;;;;22.15;9.70;;;;;;;-1.47;92.38;101127.19;124707;1102;104230;-80
2023/01/14 00:41:33;;;;;;;25.93;9.70;;;;;;;-1.45;92.93;101123.11;124618;1102;104280;-80
2023/01/14 00:44:06;;;;;;;23.70;9.17;;;;;;;-1.45;92.44;101125.69;124560;1105;104172;-80
2023/01/14 00:46:39;;;;;;;24.93;9.83;;;;;;;-1.41;92.08;101120.83;124555;1102;104200;-81
2023/01/14 00:49:16;;;;;;;24.30;9.57;;;;;;;-1.38;92.67;101126.27;124775;1102;104175;-79
2023/01/14 00:51:48;;;;;;;25.20;10.03;;;;;;;-1.38;92.58;101126.27;124870;1102;101946;-80
2023/01/14 00:54:20;;;;;;;23.37;9.40;;;;;;;-1.36;92.65;101123.05;124747;1102;104165;-82
2023/01/14 00:56:51;;;;;;;24.10;9.53;;;;;;;-1.34;92.32;101121.54;124554;1102;104420;-80
2023/01/14 00:59:24;;;;;;;25.33;9.50;;;;;;;-1.34;92.79;101120.61;124652;1102;104341;-81
2023/01/14 01:01:55;;;;;;;25.33;10.30;;;;;;;-1.35;93.22;101121.40;124862;1102;101842;-80
2023/01/14 01:04:27;;;;;;;27.27;10.70;;;;;;;-1.33;93.40;101112.13;124691;1102;104342;-81
2023/01/14 01:06:58;;;;;;;27.80;10.40;;;;;;;-1.30;92.90;101115.00;124746;1102;101962;-80
2023/01/14 01:09:30;;;;;;;26.83;10.70;;;;;;;-1.29;92.52;101122.86;124746;1105;104181;-81
2023/01/14 01:12:02;;;;;;;24.90;9.67;;;;;;;-1.28;92.50;101123.76;124735;1102;101887;-80
2023/01/14 01:14:33;;;;;;;25.47;9.93;;;;;;;-1.30;93.23;101127.88;124605;1105;104086;-81
2023/01/14 01:17:05;;;;;;;23.73;9.60;;;;;;;-1.32;92.73;101131.98;124671;1102;104281;-82
2023/01/14 01:19:38;;;;;;;23.97;8.50;;;;;;;-1.34;92.41;101125.77;124603;1102;104278;-79
2023/01/14 01:22:09;;;;;;;23.33;8.70;;;;;;;-1.36;92.11;101129.88;124705;1102;104198;-80
2023/01/14 01:24:42;;;;;;;23.90;9.20;;;;;;;-1.35;92.88;101123.97;124656;1102;101826;-82
2023/01/14 01:27:13;;;;;;;20.43;7.30;;;;;;;-1.36;92.49;101119.58;124709;1105;104319;-81
2023/01/14 01:29:45;;;;;;;20.50;8.40;;;;;;;-1.39;92.86;101124.44;124679;1105;104204;-82
2023/01/14 01:32:16;;;;;;;21.50;7.97;;;;;;;-1.41;93.06;101126.88;124653;1102;104272;-80
2023/01/14 01:34:47;;;;;;;20.57;7.90;;;;;;;-1.44;93.41;101121.44;124703;1102;104226;-81
2023/01/14 01:37:18;;;;;;;20.67;7.80;;;;;;;-1.46;92.26;101123.87;124746;1102;104233;-82
2023/01/14 01:39:51;;;;;;;21.60;8.50;;;;;;;-1.48;93.45;101122.83;124742;1102;101922;-82
2023/01/14 01:42:24;;;;;;;19.83;7.80;;;;;;;-1.48;92.86;101117.68;124703;1102;104251;-81
2023/01/14 01:45:21;;;;;;;21.53;8.40;;;;;;;-1.49;92.92;101118.43;124634;1102;104336;-81
2023/01/14 01:48:02;;;;;;;22.67;8.13;;;;;;;-1.49;93.46;101118.43;124799;1102;104221;-81
2023/01/14 01:50:34;;;;;;;21.13;8.40;;;;;;;-1.50;93.27;101121.75;124638;1102;104217;-82
2023/01/14 01:53:06;;;;;;;20.80;7.90;;;;;;;-1.50;93.09;101120.86;124681;1102;104242;-83
2023/01/14 01:55:39;;;;;;;;;;;;;;;-1.52;92.45;101119.83;124819;1101;102149;-82
2023/01/14 01:58:12;;;;;;;20.10;8.00;;;;;;;-1.52;92.34;101118.14;124596;1102;102083;-80
2023/01/14 02:00:43;;;;;;;23.13;9.13;;;;;;;-1.48;93.62;101114.17;124593;1102;104262;-80
2023/01/14 02:03:19;;;;;;;22.97;8.93;;;;;;;-1.47;93.55;101116.89;124686;1102;104217;-82
2023/01/14 02:05:53;;;;;;;21.65;8.70;;;;;;;-1.50;92.77;101114.03;124658;1104;104399;-81
2023/01/14 02:08:25;;;;;;;20.65;7.55;;;;;;;-1.49;93.13;101115.86;124623;1102;101929;-80
2023/01/14 02:11:20;;;;;;;22.60;8.10;;;;;;;-1.48;93.77;101115.11;124620;1102;104204;-81
2023/01/14 02:14:04;;;;;;;21.70;8.18;;;;;;;-1.46;93.76;101110.99;124695;1102;104670;-81
2023/01/14 02:16:47;;;;;;;22.40;7.30;;;;;;;-1.46;93.17;101110.09;124742;1102;101920;-80
2023/01/14 02:19:29;;;;;;;23.00;8.60;;;;;;;-1.47;93.58;101109.17;124645;1102;104217;-81
2023/01/14 02:22:26;;;;;;;21.10;8.10;;;;;;;-1.47;92.80;101110.85;124607;1105;102009;-80
2023/01/14 02:25:25;;;;;;;20.93;7.73;;;;;;;-1.46;93.71;101110.99;124627;1102;104316;-80
2023/01/14 02:28:02;;;;;;;20.57;7.97;;;;;;;-1.46;93.64;101108.42;124644;1101;104136;-80
2023/01/14 02:30:43;;;;;;;20.70;7.63;;;;;;;-1.47;93.46;101114.32;124689;1102;102003;-79
2023/01/14 02:33:42;;;;;;;19.10;7.47;;;;;;;-1.52;92.73;101112.99;124772;1102;101887;-81
2023/01/14 02:36:24;;;;;;;22.25;7.95;;;;;;;-1.48;93.21;101111.60;124511;1102;104226;-81
2023/01/14 02:39:06;;;;;;;20.17;8.00;;;;;;;-1.47;93.77;101109.17;124542;1103;104354;-81
2023/01/14 02:44:36;;;;;;;18.60;7.10;;;;;;;-1.46;93.21;101112.67;124647;1105;101976;-80
2023/01/14 02:47:12;;;;;;;17.30;6.87;;;;;;;-1.46;93.55;101123.87;124575;1105;104249;-81
2023/01/14 02:49:46;;;;;;;18.57;6.90;;;;;;;-1.45;93.21;101127.33;124571;1105;118995;-80
2023/01/14 02:52:20;;;;;;;19.43;6.43;;;;;;;-1.44;93.13;101126.58;124718;1102;104331;-81
2023/01/14 02:55:00;;;;;;;18.13;7.30;;;;;;;-1.43;93.34;101127.48;124651;1102;104310;-80
2023/01/14 02:57:48;;;;;;;17.85;6.75;;;;;;;-1.45;93.73;101129.91;124846;1102;104652;-81
2023/01/14 03:00:27;;;;;;;19.10;7.40;;;;;;;-1.49;93.37;101133.88;124731;1101;104185;-81
2023/01/14 03:03:12;;;;;;;21.10;7.33;;;;;;;-1.49;93.80;101133.88;124673;1105;101967;-81
2023/01/14 03:06:01;;;;;;;24.80;8.10;;;;;;;-1.45;93.83;101132.48;124483;1102;102253;-80
2023/01/14 03:08:44;;;;;;;19.90;7.50;;;;;;;-1.42;92.90;101134.45;124688;1102;104258;-81
2023/01/14 03:11:16;;;;;;;18.30;7.07;;;;;;;-1.43;93.74;101138.70;124645;1102;102702;-81
2023/01/14 03:13:53;;;;;;;21.13;7.70;;;;;;;-1.42;93.53;101134.45;124674;1102;101878;-80
2023/01/14 03:16:31;;;;;;;21.47;8.43;;;;;;;-1.41;93.27;101131.13;124661;1102;102325;-80
2023/01/14 03:19:09;;;;;;;20.13;8.17;;;;;;;-1.37;93.06;101138.34;124507;1105;104179;-81
2023/01/14 03:21:45;;;;;;;23.07;8.10;;;;;;;-1.35;93.83;101139.42;124745;1102;104288;-81
2023/01/14 03:24:22;;;;;;;23.67;8.03;;;;;;;-1.35;93.81;101131.70;124610;1102;101813;-81
2023/01/14 03:26:56;;;;;;;22.93;8.43;;;;;;;-1.33;93.78;101137.88;124710;1105;101820;-81
2023/01/14 03:29:33;;;;;;;21.80;7.70;;;;;;;-1.34;92.77;101133.48;124636;1102;101968;-80
2023/01/14 03:32:12;;;;;;;22.83;7.60;;;;;;;-1.35;93.82;101136.84;124493;1105;101798;-81
2023/01/14 03:34:49;;;;;;;22.50;8.00;;;;;;;-1.36;92.89;101137.59;124807;1102;104272;-81
2023/01/14 03:37:23;;;;;;;23.57;9.17;;;;;;;-1.32;94.09;101138.03;124558;1103;101929;-81
2023/01/14 03:39:57;;;;;;;22.70;8.37;;;;;;;-1.29;93.05;101145.14;124679;1102;104220;-81
2023/01/14 03:42:33;;;;;;;25.65;9.10;;;;;;;-1.26;93.14;101145.43;124654;1102;104179;-80
2023/01/14 03:45:11;;;;;;;25.30;9.53;;;;;;;-1.25;94.05;101147.22;124695;1102;104261;-80
2023/01/14 03:47:45;;;;;;;23.53;8.17;;;;;;;-1.22;93.57;101146.61;124704;1102;104223;-80
2023/01/14 03:50:19;;;;;;;24.33;8.87;;;;;;;-1.22;93.56;101151.77;124690;1102;104214;-81
2023/01/14 03:52:53;;;;;;;;;;;;;;;-1.21;94.20;101148.44;124922;1102;101833;-81
2023/01/14 03:55:34;;;;;;;22.77;8.13;;;;;;;-1.21;93.63;101149.33;124687;1102;104347;-80
2023/01/14 03:58:12;;;;;;;24.17;9.73;;;;;;;-1.17;93.80;101148.86;124684;1102;102315;-81
2023/01/14 04:00:49;;;;;;;22.50;8.40;;;;;;;-1.16;93.58;101142.92;124696;1101;102486;-81
2023/01/14 04:03:21;;;;;;;19.20;7.43;;;;;;;-1.17;93.58;101151.44;124661;1102;104224;-81
2023/01/14 04:05:54;;;;;;;22.87;8.07;;;;;;;-1.22;93.90;101147.50;124641;1102;101817;-81
2023/01/14 04:08:27;;;;;;;19.80;7.83;;;;;;;-1.23;93.23;101160.23;124669;1102;104179;-78
2023/01/14 04:10:58;;;;;;;21.90;8.00;;;;;;;-1.23;92.86;101156.02;124656;1102;101789;-81
2023/01/14 04:16:19;;;;;;;20.77;7.87;;;;;;;-1.30;94.15;101149.37;124715;1102;102129;-81
2023/01/14 04:18:50;;;;;;;18.67;7.43;;;;;;;-1.30;93.53;101151.05;124901;1102;104207;-81
2023/01/14 04:21:21;;;;;;;21.33;8.30;;;;;;;-1.31;93.59;101150.16;124661;1102;104284;-80
2023/01/14 04:23:52;;;;;;;20.83;7.40;;;;;;;-1.29;93.07;101151.19;124788;1102;101839;-80
2023/01/14 04:26:28;;;;;;;22.47;7.93;;;;;;;-1.31;93.61;101149.22;124656;1102;104287;-80
2023/01/14 04:28:59;;;;;;;18.87;7.00;;;;;;;-1.30;93.60;101151.05;124650;1102;102047;-81
2023/01/14 04:31:30;;;;;;;19.70;7.57;;;;;;;-1.30;93.76;101151.94;124662;1102;104262;-80
2023/01/14 04:34:01;;;;;;;20.20;7.00;;;;;;;-1.27;93.36;101156.48;124731;1102;104345;-81
2023/01/14 04:36:33;;;;;;;20.00;7.37;;;;;;;-1.29;93.95;101153.77;124578;1102;104218;-81
2023/01/14 04:39:04;;;;;;;20.17;7.70;;;;;;;-1.28;93.30;101160.73;124735;1102;104140;-79
2023/01/14 04:44:24;;;;;;;20.27;8.07;;;;;;;-1.24;93.71;101158.45;124638;1102;104245;-81
2023/01/14 04:46:56;;;;;;;19.90;7.50;;;;;;;-1.24;94.18;101155.87;124578;1105;104278;-80
2023/01/14 04:49:27;;;;;;;23.47;8.13;;;;;;;-1.24;94.19;101156.77;124661;1102;104201;-80
2023/01/14 04:51:58;;;;;;;24.90;8.57;;;;;;;-1.27;94.17;101159.06;124648;1102;101868;-80
2023/01/14 04:54:29;;;;;;;20.63;8.13;;;;;;;-1.29;93.11;101158.91;124582;1102;104261;-80
2023/01/14 04:57:01;;;;;;;22.10;8.47;;;;;;;-1.31;94.17;101155.30;124581;1102;104320;-80
2023/01/14 04:59:32;;;;;;;22.17;8.40;;;;;;;-1.29;93.45;101164.06;124615;1102;102029;-80
2023/01/14 05:02:03;;;;;;;23.77;8.53;;;;;;;-1.29;94.33;101169.21;124654;1102;104354;-80
2023/01/14 05:04:35;;;;;;;24.10;8.87;;;;;;;-1.28;93.53;101165.89;124677;1102;104140;-81
2023/01/14 05:07:06;;;;;;;27.07;8.67;;;;;;;-1.30;93.63;101177.69;124701;1102;104210;-80
2023/01/14 05:09:37;;;;;;;24.33;8.40;;;;;;;-1.31;94.35;101172.39;124698;1102;104176;-81
2023/01/14 05:12:08;;;;;;;24.97;8.03;;;;;;;-1.33;93.05;101166.20;124603;1102;101922;-81
2023/01/14 05:14:40;;;;;;;24.20;7.70;;;;;;;-1.35;92.98;101175.47;124616;1102;101836;-79
2023/01/14 05:17:11;;;;;;;22.60;8.17;;;;;;;-1.37;93.69;101176.97;124652;1102;104182;-80
2023/01/14 05:19:42;;;;;;;23.87;8.73;;;;;;;-1.38;93.52;101176.08;124679;1102;104201;-81
2023/01/14 05:22:13;;;;;;;22.70;8.43;;;;;;;-1.36;94.11;101178.80;124574;1102;104188;-81
2023/01/14 05:24:44;;;;;;;22.23;8.43;;;;;;;-1.34;93.67;101177.25;124586;1102;103847;-80
2023/01/14 05:27:16;;;;;;;23.20;8.43;;;;;;;-1.34;93.20;101177.25;124792;1102;104390;-80
2023/01/14 05:29:47;;;;;;;22.93;8.07;;;;;;;-1.35;94.36;101181.52;124665;1102;104259;-80
2023/01/14 05:32:18;;;;;;;21.90;8.17;;;;;;;-1.35;93.75;101183.19;124596;1102;104251;-81
2023/01/14 05:34:49;;;;;;;23.47;8.60;;;;;;;-1.37;93.21;101176.97;124632;1102;102015;-80
2023/01/14 05:37:21;;;;;;;21.43;8.10;;;;;;;-1.38;93.82;101178.64;124599;1101;102087;-81
2023/01/14 05:39:52;;;;;;;25.20;8.87;;;;;;;-1.38;94.01;101173.50;124600;1102;104204;-80
2023/01/14 05:48:02;;;;;;;23.43;9.43;;;;;;;-1.38;93.44;101167.45;124647;1102;102019;-80
2023/01/14 05:50:33;;;;;;;27.23;10.43;;;;;;;-1.40;93.33;101163.80;124703;1102;101967;-81
2023/01/14 05:53:05;;;;;;;27.50;9.90;;;;;;;-1.39;93.66;101161.38;124678;1102;104230;-80
2023/01/14 05:55:37;;;;;;;23.37;8.80;;;;;;;-1.41;93.53;101173.21;124765;1102;104181;-80
2023/01/14 05:58:10;;;;;;;23.30;8.60;;;;;;;-1.42;93.44;101170.49;124681;1102;101931;-81
2023/01/14 06:06:22;;;;;;;25.73;9.27;;;;;;;-1.39;94.26;101174.25;124608;1105;104188;-80
2023/01/14 06:08:55;;;;;;;23.47;8.63;;;;;;;-1.36;93.75;101173.64;124632;1102;104680;-80
2023/01/14 06:11:28;;;;;;;25.23;9.93;;;;;;;-1.36;94.33;101171.96;124658;1102;101874;-80
2023/01/14 06:14:00;;;;;;;27.23;9.63;;;;;;;-1.36;93.60;101178.80;124602;1102;104179;-80
2023/01/14 06:16:39;;;;;;;27.73;9.37;;;;;;;-1.35;94.27;101178.94;124796;1100;104175;-80
2023/01/14 06:19:12;;;;;;;24.33;9.20;;;;;;;-1.35;93.41;101176.36;124653;1102;104230;-80
2023/01/14 06:21:44;;;;;;;24.70;9.17;;;;;;;-1.34;93.45;101182.41;124648;1102;104221;-80
2023/01/14 06:24:15;;;;;;;26.53;9.20;;;;;;;-1.31;94.03;101174.97;124551;1102;110130;-80
2023/01/14 06:26:46;;;;;;;27.87;9.83;;;;;;;-1.27;94.48;101175.41;124662;1102;101891;-80
2023/01/14 06:29:17;;;;;;;27.10;10.00;;;;;;;-1.23;94.54;101174.05;124595;1102;102648;-80
2023/01/14 06:31:49;;;;;;;25.90;9.75;;;;;;;-1.20;93.55;101178.55;124515;1102;104182;-79
2023/01/14 06:34:21;;;;;;;27.50;10.10;;;;;;;-1.19;94.65;101178.70;124603;1102;102131;-80
2023/01/14 06:36:52;;;;;;;26.67;10.07;;;;;;;-1.19;93.36;101181.27;124675;1102;104175;-80
2023/01/14 06:39:24;;;;;;;27.13;10.40;;;;;;;-1.18;93.27;101172.80;124784;1102;101875;-80
2023/01/14 06:41:55;;;;;;;26.30;10.40;;;;;;;-1.18;94.03;101170.22;124748;1102;104255;-80
2023/01/14 06:44:27;;;;;;;24.63;9.43;;;;;;;-1.18;94.16;101177.94;124619;1102;101859;-80
2023/01/14 06:46:58;;;;;;;26.60;10.07;;;;;;;-1.20;93.76;101181.12;124629;1102;104255;-80
2023/01/14 06:49:29;;;;;;;27.13;10.03;;;;;;;-1.22;93.83;101180.98;124587;1102;104179;-80
2023/01/14 06:52:00;;;;;;;23.57;9.17;;;;;;;-1.24;93.29;101187.67;124530;1102;104285;-79
2023/01/14 06:54:32;;;;;;;26.57;9.50;;;;;;;-1.25;94.34;101184.95;124651;1102;102896;-80
2023/01/14 06:57:05;;;;;;;25.80;10.53;;;;;;;-1.24;93.43;101187.67;124541;1102;102029;-81
2023/01/14 06:59:36;;;;;;;23.80;9.78;;;;;;;-1.23;94.02;101186.92;124724;1102;102076;-80
2023/01/14 07:02:10;;;;;;;24.67;9.77;;;;;;;-1.22;93.97;101185.23;124633;1102;102248;-80
2023/01/14 07:04:43;;;;;;;25.05;10.43;;;;;;;-1.21;94.45;101189.64;124686;1102;102348;-80
2023/01/14 07:07:14;;;;;;;25.90;9.77;;;;;;;-1.22;93.82;101180.98;124713;1102;104230;-80
2023/01/14 07:09:46;;;;;;;24.40;9.83;;;;;;;-1.19;94.04;101185.52;124588;1102;101848;-80
2023/01/14 07:12:17;;;;;;;24.73;9.77;;;;;;;-1.17;94.52;101187.49;124624;1102;102007;-80
2023/01/14 07:14:48;;;;;;;26.60;9.90;;;;;;;-1.15;94.04;101193.68;124532;1102;104262;-79
2023/01/14 07:17:19;;;;;;;25.17;9.87;;;;;;;-1.14;93.52;101198.08;124629;1102;102549;-79
2023/01/14 07:19:50;;;;;;;27.97;10.57;;;;;;;-1.14;94.47;101200.66;124639;1102;102018;-79
2023/01/14 07:22:22;;;;;;;24.33;9.23;;;;;;;-1.10;94.12;101207.89;124516;1102;104226;-79
2023/01/14 07:24:53;;;;;;;29.03;10.53;;;;;;;-1.11;93.21;101202.59;124612;1102;101827;-80
2023/01/14 07:27:24;;;;;;;23.20;10.07;;;;;;;-1.12;94.17;101199.12;124624;1102;102115;-80
2023/01/14 07:29:56;;;;;;;24.27;9.70;;;;;;;-1.09;94.65;101204.56;124719;1102;102227;-80
2023/01/14 07:32:27;;;;;;;24.90;10.33;;;;;;;-1.05;94.00;101207.42;124794;1102;104339;-80
2023/01/14 07:34:58;;;;;;;26.00;10.13;;;;;;;-1.04;94.47;101210.14;124562;1102;101839;-80
2023/01/14 07:37:29;;;;;;;27.20;10.60;;;;;;;-1.02;94.29;101199.98;124549;1102;101875;-80
2023/01/14 07:40:00;;;;;;;24.80;10.00;;;;;;;-0.97;93.54;101204.77;124547;1102;104227;-81
2023/01/14 07:42:32;;;;;;;24.27;9.77;;;;;;;-0.94;93.39;101204.16;124668;1102;101901;-80
2023/01/14 07:45:03;;;;;;;26.43;9.90;;;;;;;-0.98;94.17;101197.83;124678;1102;104284;-80
2023/01/14 07:47:35;;;;;;;25.00;9.70;;;;;;;-0.96;93.56;101208.28;124721;1102;102193;-80
2023/01/14 07:50:08;;;;;;;22.17;9.03;;;;;;;-0.93;93.82;101205.98;124594;1102;102327;-80
2023/01/14 07:52:39;;;;;;;24.13;9.80;;;;;;;-0.92;93.86;101207.77;124705;1102;104188;-81
2023/01/14 07:55:11;;;;;;;21.60;9.40;;;;;;;-0.91;93.75;101205.34;124602;1102;101820;-80
2023/01/14 07:57:42;;;;;;;23.17;10.03;;;;;;;-0.88;94.14;101207.30;124712;1102;104290;-80
2023/01/14 08:00:17;;;;;;;26.13;10.53;;;;;;;-0.84;93.93;101214.57;124516;1102;101871;-80
2023/01/14 08:02:49;;;;;;;23.90;9.87;;;;;;;-0.81;93.76;101217.43;124617;1105;101941;-80
2023/01/14 08:05:21;;;;;;;26.90;10.30;;;;;;;-0.80;94.28;101223.48;124671;1102;104181;-80
2023/01/14 08:07:52;;;;;;;26.00;10.13;;;;;;;-0.79;93.71;101226.20;124687;1102;104265;-79
2023/01/14 08:10:23;;;;;;;27.90;10.80;;;;;;;-0.82;93.89;101223.34;124792;1102;101964;-80
2023/01/14 08:12:54;;;;;;;23.97;9.30;;;;;;;-0.83;93.71;101229.24;124809;1100;104230;-80
2023/01/14 08:15:26;;;;;;;24.37;10.13;;;;;;;-0.91;93.47;101227.64;124607;1101;104185;-80
2023/01/14 08:17:59;;;;;;;24.10;10.20;;;;;;;-0.92;93.31;101228.39;124632;1102;103230;-79
2023/01/14 08:20:31;;;;;;;21.87;8.60;;;;;;;-0.92;93.30;101225.81;124656;1102;102205;-80
2023/01/14 08:23:02;;;;;;;23.83;10.07;;;;;;;-1.02;93.42;101239.52;124685;1102;104195;-79
2023/01/14 08:25:33;;;;;;;24.13;8.90;;;;;;;-0.99;93.12;101238.91;124541;1102;101903;-80
2023/01/14 08:28:06;;;;;;;24.77;10.13;;;;;;;-0.97;93.65;101227.96;124695;1102;102042;-80
2023/01/14 08:30:37;;;;;;;22.80;9.77;;;;;;;-0.92;94.08;101229.32;124685;1102;104229;-80
2023/01/14 08:33:10;;;;;;;21.47;8.57;;;;;;;-0.88;93.42;101227.92;124677;1102;104722;-80
2023/01/14 08:35:41;;;;;;;23.97;9.93;;;;;;;-0.84;94.31;101226.52;124551;1102;102003;-80
2023/01/14 08:38:13;;;;;;;25.33;10.40;;;;;;;-0.76;93.48;101234.21;124624;1102;104376;-80
2023/01/14 08:40:44;;;;;;;23.03;9.67;;;;;;;-0.71;93.66;101228.59;124598;1102;102099;-80
2023/01/14 08:43:15;;;;;;;22.87;9.63;;;;;;;-0.74;93.46;101232.67;124690;1102;102881;-80
2023/01/14 08:45:47;;;;;;;23.30;9.35;;;;;;;-0.72;93.59;101235.39;124638;1102;102300;-79
2023/01/14 08:48:18;;;;;;;24.17;10.47;;;;;;;-0.77;93.42;101236.65;124558;1102;104364;-80
2023/01/14 08:50:49;;;;;;;22.87;9.90;;;;;;;-0.77;93.10;101234.97;124766;1101;102092;-80
2023/01/14 08:53:20;;;;;;;22.47;9.53;;;;;;;-0.76;93.93;101231.64;124739;1102;104117;-81
2023/01/14 08:55:55;;;;;;;22.63;9.03;;;;;;;-0.74;93.68;101226.63;124689;1102;102617;-80
2023/01/14 08:58:27;;;;;;;23.60;10.07;;;;;;;-0.70;93.44;101226.16;124681;1102;102115;-80
2023/01/14 09:00:59;;;;;;;24.63;10.20;;;;;;;-0.65;94.08;101224.00;124656;1102;104221;-80
2023/01/14 09:03:32;;;;;;;25.47;11.00;;;;;;;-0.61;93.40;101221.84;124632;1102;102173;-80
2023/01/14 09:06:05;;;;;;;28.55;11.50;;;;;;;-0.55;93.90;101224.98;124584;1102;104108;-80
2023/01/14 09:17:24;;;;;;;34.40;14.87;;;;;;;-0.38;93.99;101221.34;124229;1106;104261;-80
2023/01/14 09:19:57;;;;;;;35.40;14.37;;;;;;;-0.34;94.18;101221.61;124588;1106;104368;-80
2023/01/14 09:22:30;;;;;;;38.10;15.10;;;;;;;-0.29;93.91;101228.12;124480;1105;103450;-80
2023/01/14 09:25:01;;;;;;;30.67;13.77;;;;;;;-0.29;93.68;101225.54;124585;1105;101823;-80
2023/01/14 09:27:32;;;;;;;29.33;12.97;;;;;;;-0.30;93.31;101226.30;124646;1102;102100;-80
2023/01/14 09:30:04;;;;;;;27.93;12.83;;;;;;;-0.35;92.99;101228.45;124634;1102;104146;-80
2023/01/14 09:32:41;;;;;;;34.40;14.30;;;;;;;-0.44;92.98;101225.04;124834;1102;104259;-80
2023/01/14 09:35:12;;;;;;;31.03;14.47;;;;;;;-0.54;92.89;101220.72;124566;1102;102132;-80
2023/01/14 09:37:43;;;;;;;32.30;15.10;;;;;;;-0.56;92.91;101222.27;124706;1102;104191;-80
2023/01/14 09:40:15;;;;;;;32.13;13.43;;;;;;;-0.62;93.01;101217.45;124632;1102;101992;-81
2023/01/14 09:42:49;;;;;;;36.30;16.17;;;;;;;-0.67;92.73;101221.28;124585;1102;102235;-80
2023/01/14 09:45:27;;;;;;;33.75;15.28;;;;;;;-0.70;92.77;101218.42;124626;1102;101823;-80
2023/01/14 09:48:03;;;;;;;34.87;16.13;;;;;;;-0.71;93.03;101228.59;124643;1102;101942;-80
2023/01/14 09:50:43;;;;;;;33.17;16.00;;;;;;;-0.75;93.23;101225.73;124761;1102;102032;-80
2023/01/14 09:53:29;;;;;;;34.03;14.97;;;;;;;-0.76;93.01;101221.33;124674;1102;102121;-80
2023/01/14 09:56:07;;;;;;;34.43;14.90;;;;;;;-0.73;92.92;101216.45;124569;1102;104124;-80
2023/01/14 09:58:41;;;;;;;36.23;15.93;;;;;;;-0.69;93.14;101216.73;124719;1102;104258;-80
2023/01/14 10:01:18;;;;;;;34.08;15.40;;;;;;;-0.64;93.98;101216.41;124583;1102;104269;-80
2023/01/14 10:03:59;;;;;;;34.23;14.97;;;;;;;-0.68;93.07;101221.14;124752;1101;104179;-81
2023/01/14 10:06:30;;;;;;;34.83;16.10;;;;;;;-0.71;92.95;101220.86;124643;1102;104210;-80
2023/01/14 10:09:07;;;;;;;32.00;14.13;;;;;;;-0.70;93.44;101215.84;124617;1101;104176;-80
2023/01/14 10:11:42;;;;;;;33.70;15.17;;;;;;;-0.65;94.07;101218.84;124630;1102;104262;-79
2023/01/14 10:14:18;;;;;;;41.73;16.20;;;;;;;-0.60;93.80;101217.59;124587;1102;104221;-79
2023/01/14 10:16:54;;;;;;;37.57;16.70;;;;;;;-0.52;93.45;101214.03;124623;1102;104233;-79
2023/01/14 10:19:37;;;;;;;34.03;14.80;;;;;;;-0.40;93.42;101207.41;124630;1102;117795;-80
2023/01/14 10:22:15;;;;;;;34.43;15.87;;;;;;;-0.31;93.98;101202.19;124507;1102;102777;-79
2023/01/14 10:24:46;;;;;;;37.50;16.27;;;;;;;-0.26;93.75;101203.50;124612;1102;104076;-80
2023/01/14 10:27:19;;;;;;;33.30;16.23;;;;;;;-0.25;94.09;101196.66;124689;1102;101833;-79
2023/01/14 10:29:51;;;;;;;36.17;17.87;;;;;;;-0.30;92.80;101197.92;124617;1102;103935;-80
2023/01/14 10:32:23;;;;;;;37.47;15.60;;;;;;;-0.34;93.48;101200.98;124633;1102;104232;-80
2023/01/14 10:34:58;;;;;;;35.70;16.63;;;;;;;-0.36;93.20;101193.11;124621;1102;101986;-78
2023/01/14 10:37:29;;;;;;;38.73;16.47;;;;;;;-0.32;93.84;101189.16;124599;1102;104230;-79
2023/01/14 10:40:01;;;;;;;38.20;16.80;;;;;;;-0.31;93.12;101188.36;124546;1102;104233;-79
2023/01/14 10:42:32;;;;;;;38.40;16.80;;;;;;;-0.29;93.35;101186.85;124744;1101;104175;-79
2023/01/14 10:45:06;;;;;;;35.80;16.53;;;;;;;-0.25;93.83;101179.53;124652;1102;102143;-79
2023/01/14 10:47:37;;;;;;;38.37;17.37;;;;;;;-0.19;93.88;101179.15;124566;1102;104185;-80
2023/01/14 10:50:19;;;;;;;36.07;16.40;;;;;;;-0.16;94.10;101176.84;124651;1102;101954;-79
2023/01/14 10:52:52;;;;;;;40.17;17.77;;;;;;;-0.10;94.31;101176.50;124590;1102;104188;-79
2023/01/14 10:55:28;;;;;;;45.73;18.53;;;;;;;-0.07;93.41;101169.03;124667;1102;104205;-79
2023/01/14 10:58:05;;;;;;;39.20;17.17;;;;;;;-0.10;92.80;101166.17;124603;1102;104175;-80
2023/01/14 11:00:39;;;;;;;39.20;17.83;;;;;;;-0.09;94.03;101163.73;124645;1102;101894;-80
2023/01/14 11:03:21;;;;;;;41.53;17.47;;;;;;;-0.03;93.62;101163.38;124724;1102;102551;-79
2023/01/14 11:05:58;;;;;;;37.40;16.83;;;;;;;0.03;93.68;101155.26;124649;1102;104185;-79
2023/01/14 11:08:35;;;;;;;38.63;16.60;;;;;;;0.05;93.21;101152.05;124649;1102;102239;-81
2023/01/14 11:11:09;;;;;;;36.40;16.33;;;;;;;0.03;93.34;101156.16;124592;1102;104213;-80
2023/01/14 11:13:44;;;;;;;35.63;16.23;;;;;;;-0.04;92.93;101148.66;124653;1103;102048;-79
2023/01/14 11:16:39;;;;;;;38.87;16.90;;;;;;;-0.12;93.22;101155.72;124669;1102;102007;-80
2023/01/14 11:19:21;;;;;;;38.37;16.63;;;;;;;-0.10;93.32;101151.59;124669;1102;104236;-80
2023/01/14 11:21:54;;;;;;;33.87;15.63;;;;;;;-0.08;93.43;101151.73;124742;1102;104198;-79
2023/01/14 11:24:31;;;;;;;36.47;16.07;;;;;;;-0.10;93.60;101158.44;124588;1102;104271;-79
2023/01/14 11:27:05;;;;;;;34.53;15.30;;;;;;;-0.09;93.14;101149.94;124718;1101;102168;-80
2023/01/14 11:29:43;;;;;;;35.58;14.68;;;;;;;-0.02;93.59;101152.27;124595;1102;102469;-80
2023/01/14 11:32:19;;;;;;;33.43;15.73;;;;;;;0.02;93.35;101146.63;124725;1102;101862;-80
2023/01/14 11:34:54;;;;;;;36.53;16.43;;;;;;;0.07;93.48;101149.61;124554;1102;101907;-80
2023/01/14 11:37:32;;;;;;;37.93;16.80;;;;;;;0.09;93.69;101145.48;124624;1102;102491;-80
2023/01/14 11:40:05;;;;;;;37.90;17.13;;;;;;;0.12;93.13;101150.91;124623;1102;102276;-80
2023/01/14 11:42:39;;;;;;;41.33;19.67;;;;;;;0.06;92.96;101146.10;124684;1102;104249;-79
2023/01/14 11:45:21;;;;;;;43.35;19.70;;;;;;;-0.03;92.52;101147.91;124682;1102;104323;-80
2023/01/14 11:47:54;;;;;;;43.97;19.60;;;;;;;-0.16;92.44;101165.63;124718;1102;104293;-80
2023/01/14 11:50:28;;;;;;;46.80;21.70;;;;;;;-0.28;92.54;101168.94;124672;1102;104252;-80
2023/01/14 11:53:05;;;;;;;46.43;22.33;;;;;;;-0.33;93.18;101166.70;124728;1102;104320;-80
2023/01/14 11:55:39;;;;;;;46.43;21.50;;;;;;;-0.34;92.87;101167.45;124687;1102;104194;-80
2023/01/14 11:58:18;;;;;;;46.50;21.70;;;;;;;-0.33;92.91;101169.28;124759;1102;102204;-77